Data Viewer
| City | State | Eastern Time | Source | Daily Temp Max | Daily Temp Min | Daily Dew Point Max | Daily Dew Point Min | Daily RH Max | Daily Min RH | Daily BP Max | Daily BP Min | Daily Precip | Daily Wind Max | Daily Wind Max Dir |
|---|---|---|---|---|---|---|---|---|---|---|---|---|---|---|
| North Haledon | NJ | 2026-04-10 | Mesonet | 68 | 39 | 46 | 37 | 92 | 42 | 30.43 | 30.11 | 0.00 | 13 | S |
| North Haledon | NJ | 2026-04-26 | Mesonet | 58 | 41 | 44 | 39 | 99 | 55 | 30.18 | 30.02 | 0.07 | 17 | SE |
| North Haledon | NJ | 2026-05-09 | Mesonet | 64 | 50 | 55 | 46 | 100 | 60 | 29.92 | 29.82 | 0.25 | 8 | SW |
| North Haledon | NJ | 2026-05-08 | Mesonet | 61 | 44 | 48 | 33 | 91 | 40 | 29.93 | 29.81 | 0.02 | 15 | SSW |
| North Haledon | NJ | 2026-05-07 | Mesonet | 63 | 48 | 49 | 29 | 95 | 31 | 29.87 | 29.77 | 0.15 | 20 | S |
| North Haledon | NJ | 2026-05-06 | Mesonet | 70 | 55 | 62 | 48 | 95 | 59 | 29.84 | 29.72 | 0.12 | 11 | W |
| North Haledon | NJ | 2026-05-05 | Mesonet | 84 | 52 | 55 | 44 | 90 | 26 | 29.88 | 29.76 | 0.00 | 17 | W |
| North Haledon | NJ | 2026-05-04 | Mesonet | 73 | 41 | 48 | 34 | 83 | 29 | 29.95 | 29.80 | 0.00 | 13 | ESE |
| North Haledon | NJ | 2026-05-03 | Mesonet | 59 | 44 | 38 | 23 | 76 | 26 | 29.90 | 29.84 | 0.00 | 24 | E |
| North Haledon | NJ | 2026-05-02 | Mesonet | 59 | 48 | 49 | 28 | 96 | 32 | 29.91 | 29.82 | 0.02 | 17 | WNW |
| North Haledon | NJ | 2026-05-01 | Mesonet | 65 | 44 | 49 | 31 | 84 | 35 | 29.93 | 29.84 | 0.00 | 17 | ENE |
| North Haledon | NJ | 2026-04-30 | Mesonet | 60 | 48 | 51 | 40 | 99 | 55 | 29.84 | 29.72 | 0.31 | 11 | NW |
| North Haledon | NJ | 2026-04-29 | Mesonet | 64 | 49 | 48 | 38 | 95 | 45 | 30.07 | 29.83 | 0.26 | 11 | S |
| North Haledon | NJ | 2026-04-28 | Mesonet | 65 | 42 | 43 | 36 | 92 | 39 | 30.23 | 30.03 | 0.00 | 8 | SSW |
| North Haledon | NJ | 2026-04-27 | Mesonet | 68 | 41 | 44 | 32 | 97 | 27 | 30.26 | 30.17 | 0.00 | 15 | SSW |
| North Haledon | NJ | 2026-04-25 | Mesonet | 52 | 40 | 44 | 33 | 99 | 56 | 30.07 | 29.94 | 1.27 | 11 | W |
| North Haledon | NJ | 2026-04-11 | Mesonet | 60 | 47 | 51 | 27 | 83 | 30 | 30.38 | 30.05 | 0.00 | 26 | NNE |
| North Haledon | NJ | 2026-04-24 | Mesonet | 66 | 51 | 46 | 25 | 75 | 22 | 29.95 | 29.79 | 0.00 | 18 | SW |
| North Haledon | NJ | 2026-04-23 | Mesonet | 72 | 39 | 50 | 32 | 100 | 24 | 29.99 | 29.84 | 0.00 | 22 | SW |
| North Haledon | NJ | 2026-04-22 | Mesonet | 55 | 44 | 46 | 33 | 92 | 62 | 30.24 | 29.97 | 0.07 | 11 | NNW |
| North Haledon | NJ | 2026-04-21 | Mesonet | 53 | 29 | 34 | 11 | 84 | 20 | 30.39 | 30.20 | 0.00 | 11 | S |
| North Haledon | NJ | 2026-04-20 | Mesonet | 49 | 33 | 38 | 18 | 97 | 33 | 30.32 | 30.07 | 0.01 | 24 | NNE |
| North Haledon | NJ | 2026-04-19 | Mesonet | 52 | 38 | 51 | 33 | 99 | 58 | 30.09 | 29.78 | 0.06 | 22 | W |
| North Haledon | NJ | 2026-04-18 | Mesonet | 66 | 51 | 59 | 49 | 99 | 63 | 30.08 | 29.93 | 0.00 | 17 | NNW |
| North Haledon | NJ | 2026-04-17 | Mesonet | 78 | 62 | 66 | 53 | 89 | 47 | 30.01 | 29.74 | 0.08 | 24 | SSE |
| North Haledon | NJ | 2026-04-16 | Mesonet | 90 | 65 | 65 | 58 | 87 | 34 | 29.92 | 29.72 | 0.00 | 13 | ENE |
| North Haledon | NJ | 2026-04-15 | Mesonet | 88 | 62 | 65 | 60 | 94 | 42 | 29.96 | 29.83 | 0.00 | 13 | WNW |
| North Haledon | NJ | 2026-04-14 | Mesonet | 87 | 56 | 64 | 54 | 94 | 37 | 30.01 | 29.82 | 0.07 | 17 | SSW |
| North Haledon | NJ | 2026-04-13 | Mesonet | 81 | 46 | 61 | 38 | 83 | 42 | 30.29 | 29.90 | 0.00 | 15 | ENE |
| North Haledon | NJ | 2026-04-12 | Mesonet | 56 | 36 | 42 | 26 | 84 | 38 | 30.51 | 30.28 | 0.00 | 17 | NW |
| North Haledon | NJ | 2026-05-10 | Mesonet | 53 | 52 | 53 | 52 | 100 | 99 | 29.88 | 29.85 | 0.00 | 6 | ENE |
data collection created in 0.019016981124878 (queried in 0.011345) rendered in: 6.7949295043945E-5

